sensor_id;sensor_type;location;lat;lon;timestamp;temperature;humidity
54796;DHT22;40693;43.884;20.340;2023-08-06T00:02:14;538.30;2406.40
54796;DHT22;40693;43.884;20.340;2023-08-06T00:04:40;538.30;2406.40
54796;DHT22;40693;43.884;20.340;2023-08-06T00:07:05;538.30;2406.40
54796;DHT22;40693;43.884;20.340;2023-08-06T00:09:31;538.40;2406.40
54796;DHT22;40693;43.884;20.340;2023-08-06T00:11:57;538.40;2406.40
54796;DHT22;40693;43.884;20.340;2023-08-06T00:14:22;538.40;2406.40
54796;DHT22;40693;43.884;20.340;2023-08-06T00:16:48;538.40;2406.40
54796;DHT22;40693;43.884;20.340;2023-08-06T00:19:14;538.40;2406.40
54796;DHT22;40693;43.884;20.340;2023-08-06T00:21:39;538.40;2406.40
54796;DHT22;40693;43.884;20.340;2023-08-06T00:24:05;538.40;2406.40
54796;DHT22;40693;43.884;20.340;2023-08-06T00:26:31;538.30;2406.40
54796;DHT22;40693;43.884;20.340;2023-08-06T00:28:56;538.40;2406.40
54796;DHT22;40693;43.884;20.340;2023-08-06T00:31:22;538.30;2406.40
54796;DHT22;40693;43.884;20.340;2023-08-06T00:33:48;538.30;2406.40
54796;DHT22;40693;43.884;20.340;2023-08-06T00:36:13;538.20;2406.40
54796;DHT22;40693;43.884;20.340;2023-08-06T00:38:39;538.10;2406.40
54796;DHT22;40693;43.884;20.340;2023-08-06T00:41:04;538.00;2406.40
54796;DHT22;40693;43.884;20.340;2023-08-06T00:43:30;537.90;2406.40
54796;DHT22;40693;43.884;20.340;2023-08-06T00:45:56;538.00;2406.40
54796;DHT22;40693;43.884;20.340;2023-08-06T00:48:21;538.00;2406.40
54796;DHT22;40693;43.884;20.340;2023-08-06T00:50:47;537.90;2406.40
54796;DHT22;40693;43.884;20.340;2023-08-06T00:53:14;537.80;2406.40
54796;DHT22;40693;43.884;20.340;2023-08-06T00:55:39;537.70;2406.40
54796;DHT22;40693;43.884;20.340;2023-08-06T00:58:05;537.80;2406.40
54796;DHT22;40693;43.884;20.340;2023-08-06T01:00:31;537.80;2406.40
54796;DHT22;40693;43.884;20.340;2023-08-06T01:02:57;537.80;2406.40
54796;DHT22;40693;43.884;20.340;2023-08-06T01:05:23;537.90;2406.40
54796;DHT22;40693;43.884;20.340;2023-08-06T01:13:43;538.00;2406.40
54796;DHT22;40693;43.884;20.340;2023-08-06T01:16:15;538.00;2406.40
54796;DHT22;40693;43.884;20.340;2023-08-06T01:18:42;538.00;2406.40
54796;DHT22;40693;43.884;20.340;2023-08-06T01:21:17;538.00;2406.40
54796;DHT22;40693;43.884;20.340;2023-08-06T01:23:43;538.00;2406.40
54796;DHT22;40693;43.884;20.340;2023-08-06T01:26:39;538.00;2406.40
54796;DHT22;40693;43.884;20.340;2023-08-06T01:31:42;537.90;2406.40
54796;DHT22;40693;43.884;20.340;2023-08-06T01:34:17;538.00;2406.40
54796;DHT22;40693;43.884;20.340;2023-08-06T01:36:43;538.00;2406.40
54796;DHT22;40693;43.884;20.340;2023-08-06T01:39:09;538.00;2406.40
54796;DHT22;40693;43.884;20.340;2023-08-06T01:41:35;538.00;2406.40
54796;DHT22;40693;43.884;20.340;2023-08-06T01:44:01;538.10;2406.40
54796;DHT22;40693;43.884;20.340;2023-08-06T01:46:27;538.20;2406.40
54796;DHT22;40693;43.884;20.340;2023-08-06T01:48:52;538.20;2406.40
54796;DHT22;40693;43.884;20.340;2023-08-06T01:51:18;538.20;2406.40
54796;DHT22;40693;43.884;20.340;2023-08-06T01:53:44;538.20;2406.40
54796;DHT22;40693;43.884;20.340;2023-08-06T01:56:09;538.30;2406.40
54796;DHT22;40693;43.884;20.340;2023-08-06T01:58:35;538.30;2406.40
54796;DHT22;40693;43.884;20.340;2023-08-06T02:01:02;538.20;2406.40
54796;DHT22;40693;43.884;20.340;2023-08-06T02:03:27;538.10;2406.40
54796;DHT22;40693;43.884;20.340;2023-08-06T02:05:53;538.00;2406.40
54796;DHT22;40693;43.884;20.340;2023-08-06T02:08:19;538.00;2406.40
54796;DHT22;40693;43.884;20.340;2023-08-06T02:10:45;538.00;2406.40
54796;DHT22;40693;43.884;20.340;2023-08-06T02:13:11;537.90;2406.40
54796;DHT22;40693;43.884;20.340;2023-08-06T02:15:42;537.90;2406.40
54796;DHT22;40693;43.884;20.340;2023-08-06T02:18:08;537.90;2406.40
54796;DHT22;40693;43.884;20.340;2023-08-06T02:20:34;537.90;2406.40
54796;DHT22;40693;43.884;20.340;2023-08-06T02:23:00;537.90;2406.40
54796;DHT22;40693;43.884;20.340;2023-08-06T02:25:25;537.90;2406.40
54796;DHT22;40693;43.884;20.340;2023-08-06T02:27:51;538.00;2406.40
54796;DHT22;40693;43.884;20.340;2023-08-06T02:30:17;537.90;2406.40
54796;DHT22;40693;43.884;20.340;2023-08-06T02:32:42;537.90;2406.40
54796;DHT22;40693;43.884;20.340;2023-08-06T02:35:08;537.80;2406.40
54796;DHT22;40693;43.884;20.340;2023-08-06T02:37:34;537.80;2406.40
54796;DHT22;40693;43.884;20.340;2023-08-06T02:40:00;537.70;2406.40
54796;DHT22;40693;43.884;20.340;2023-08-06T02:42:25;537.60;2406.40
54796;DHT22;40693;43.884;20.340;2023-08-06T02:44:52;537.60;2406.40
54796;DHT22;40693;43.884;20.340;2023-08-06T02:47:20;537.60;2406.40
54796;DHT22;40693;43.884;20.340;2023-08-06T02:49:46;512.90;2380.80
54796;DHT22;40693;43.884;20.340;2023-08-06T02:52:12;512.90;2380.80
54796;DHT22;40693;43.884;20.340;2023-08-06T02:54:37;512.90;2380.80
54796;DHT22;40693;43.884;20.340;2023-08-06T02:57:04;512.70;2380.80
54796;DHT22;40693;43.884;20.340;2023-08-06T02:59:30;512.50;2380.80
54796;DHT22;40693;43.884;20.340;2023-08-06T03:01:56;512.40;2380.80
54796;DHT22;40693;43.884;20.340;2023-08-06T03:04:21;512.40;2380.80
54796;DHT22;40693;43.884;20.340;2023-08-06T03:06:49;512.40;2380.80
54796;DHT22;40693;43.884;20.340;2023-08-06T03:09:16;512.40;2380.80
54796;DHT22;40693;43.884;20.340;2023-08-06T03:11:41;512.40;2380.80
54796;DHT22;40693;43.884;20.340;2023-08-06T03:14:07;512.50;2380.80
54796;DHT22;40693;43.884;20.340;2023-08-06T03:16:33;512.60;2380.80
54796;DHT22;40693;43.884;20.340;2023-08-06T03:18:58;512.70;2380.80
54796;DHT22;40693;43.884;20.340;2023-08-06T03:21:24;512.80;2380.80
54796;DHT22;40693;43.884;20.340;2023-08-06T03:23:50;512.80;2380.80
54796;DHT22;40693;43.884;20.340;2023-08-06T03:26:16;512.90;2380.80
54796;DHT22;40693;43.884;20.340;2023-08-06T03:28:41;512.80;2380.80
54796;DHT22;40693;43.884;20.340;2023-08-06T03:31:07;512.80;2380.80
54796;DHT22;40693;43.884;20.340;2023-08-06T03:33:33;512.80;2380.80
54796;DHT22;40693;43.884;20.340;2023-08-06T03:35:59;512.70;2380.80
54796;DHT22;40693;43.884;20.340;2023-08-06T03:38:24;512.70;2380.80
54796;DHT22;40693;43.884;20.340;2023-08-06T03:40:50;512.60;2380.80
54796;DHT22;40693;43.884;20.340;2023-08-06T03:43:16;512.80;2380.80
54796;DHT22;40693;43.884;20.340;2023-08-06T03:45:42;512.80;2380.80
54796;DHT22;40693;43.884;20.340;2023-08-06T03:48:08;512.70;2380.80
54796;DHT22;40693;43.884;20.340;2023-08-06T03:50:35;512.70;2380.80
54796;DHT22;40693;43.884;20.340;2023-08-06T03:53:01;512.70;2380.80
54796;DHT22;40693;43.884;20.340;2023-08-06T03:55:27;512.80;2380.80
54796;DHT22;40693;43.884;20.340;2023-08-06T03:57:52;512.80;2380.80
54796;DHT22;40693;43.884;20.340;2023-08-06T04:00:18;512.80;2380.80
54796;DHT22;40693;43.884;20.340;2023-08-06T04:02:44;512.80;2380.80
54796;DHT22;40693;43.884;20.340;2023-08-06T04:05:10;512.70;2380.80
54796;DHT22;40693;43.884;20.340;2023-08-06T04:07:35;512.70;2380.80
54796;DHT22;40693;43.884;20.340;2023-08-06T04:10:03;512.80;2380.80
54796;DHT22;40693;43.884;20.340;2023-08-06T04:12:30;512.80;2380.80
54796;DHT22;40693;43.884;20.340;2023-08-06T04:14:58;512.90;2380.80
54796;DHT22;40693;43.884;20.340;2023-08-06T04:17:24;512.80;2380.80
54796;DHT22;40693;43.884;20.340;2023-08-06T04:19:54;512.80;2380.80
54796;DHT22;40693;43.884;20.340;2023-08-06T04:22:21;512.80;2380.80
54796;DHT22;40693;43.884;20.340;2023-08-06T04:24:47;512.90;2380.80
54796;DHT22;40693;43.884;20.340;2023-08-06T04:27:14;512.90;2380.80
54796;DHT22;40693;43.884;20.340;2023-08-06T04:29:40;512.90;2380.80
54796;DHT22;40693;43.884;20.340;2023-08-06T04:32:08;537.60;2406.40
54796;DHT22;40693;43.884;20.340;2023-08-06T04:34:35;512.90;2380.80
54796;DHT22;40693;43.884;20.340;2023-08-06T04:37:01;537.60;2406.40
54796;DHT22;40693;43.884;20.340;2023-08-06T04:39:27;537.60;2406.40
54796;DHT22;40693;43.884;20.340;2023-08-06T04:41:53;537.60;2406.40
54796;DHT22;40693;43.884;20.340;2023-08-06T04:44:19;537.70;2406.40
54796;DHT22;40693;43.884;20.340;2023-08-06T04:46:44;537.80;2406.40
54796;DHT22;40693;43.884;20.340;2023-08-06T04:49:10;537.90;2406.40
54796;DHT22;40693;43.884;20.340;2023-08-06T04:51:36;537.80;2406.40
54796;DHT22;40693;43.884;20.340;2023-08-06T04:54:01;537.80;2406.40
54796;DHT22;40693;43.884;20.340;2023-08-06T04:56:27;537.80;2406.40
54796;DHT22;40693;43.884;20.340;2023-08-06T04:58:53;537.90;2406.40
54796;DHT22;40693;43.884;20.340;2023-08-06T05:01:19;537.90;2406.40
54796;DHT22;40693;43.884;20.340;2023-08-06T05:03:44;538.00;2406.40
54796;DHT22;40693;43.884;20.340;2023-08-06T05:06:10;538.00;2406.40
54796;DHT22;40693;43.884;20.340;2023-08-06T05:08:36;538.00;2406.40
54796;DHT22;40693;43.884;20.340;2023-08-06T05:11:02;538.10;2406.40
54796;DHT22;40693;43.884;20.340;2023-08-06T05:13:28;538.10;2406.40
54796;DHT22;40693;43.884;20.340;2023-08-06T05:15:54;538.20;2406.40
54796;DHT22;40693;43.884;20.340;2023-08-06T05:18:20;538.20;2406.40
54796;DHT22;40693;43.884;20.340;2023-08-06T05:20:45;538.20;2406.40
54796;DHT22;40693;43.884;20.340;2023-08-06T05:23:11;538.30;2406.40
54796;DHT22;40693;43.884;20.340;2023-08-06T05:25:40;538.30;2406.40
54796;DHT22;40693;43.884;20.340;2023-08-06T05:28:06;538.30;2406.40
54796;DHT22;40693;43.884;20.340;2023-08-06T05:30:32;538.30;2406.40
54796;DHT22;40693;43.884;20.340;2023-08-06T05:32:57;538.40;2406.40
54796;DHT22;40693;43.884;20.340;2023-08-06T05:35:23;538.40;2406.40
54796;DHT22;40693;43.884;20.340;2023-08-06T05:37:52;538.50;2406.40
54796;DHT22;40693;43.884;20.340;2023-08-06T05:40:18;538.50;2406.40
54796;DHT22;40693;43.884;20.340;2023-08-06T05:42:45;538.50;2406.40
54796;DHT22;40693;43.884;20.340;2023-08-06T05:45:10;538.50;2406.40
54796;DHT22;40693;43.884;20.340;2023-08-06T05:47:36;538.50;2406.40
54796;DHT22;40693;43.884;20.340;2023-08-06T05:50:02;563.20;2432.00
54796;DHT22;40693;43.884;20.340;2023-08-06T05:52:28;563.30;2432.00
54796;DHT22;40693;43.884;20.340;2023-08-06T05:54:53;563.30;2432.00
54796;DHT22;40693;43.884;20.340;2023-08-06T05:57:20;563.40;2432.00
54796;DHT22;40693;43.884;20.340;2023-08-06T05:59:47;563.50;2432.00
54796;DHT22;40693;43.884;20.340;2023-08-06T06:02:12;563.50;2432.00
54796;DHT22;40693;43.884;20.340;2023-08-06T06:04:38;563.50;2432.00
54796;DHT22;40693;43.884;20.340;2023-08-06T06:07:04;563.60;2432.00
54796;DHT22;40693;43.884;20.340;2023-08-06T06:09:30;563.60;2432.00
54796;DHT22;40693;43.884;20.340;2023-08-06T06:11:55;563.60;2432.00
54796;DHT22;40693;43.884;20.340;2023-08-06T06:14:21;563.70;2432.00
54796;DHT22;40693;43.884;20.340;2023-08-06T06:16:47;563.60;2432.00
54796;DHT22;40693;43.884;20.340;2023-08-06T06:19:13;563.70;2432.00
54796;DHT22;40693;43.884;20.340;2023-08-06T06:21:39;563.70;2432.00
54796;DHT22;40693;43.884;20.340;2023-08-06T06:24:05;563.80;2432.00
54796;DHT22;40693;43.884;20.340;2023-08-06T06:26:32;563.80;2432.00
54796;DHT22;40693;43.884;20.340;2023-08-06T06:28:58;563.80;2432.00
54796;DHT22;40693;43.884;20.340;2023-08-06T06:31:23;563.90;2432.00
54796;DHT22;40693;43.884;20.340;2023-08-06T06:33:49;563.90;2432.00
54796;DHT22;40693;43.884;20.340;2023-08-06T06:36:15;563.90;2432.00
54796;DHT22;40693;43.884;20.340;2023-08-06T06:38:40;564.00;2432.00
54796;DHT22;40693;43.884;20.340;2023-08-06T06:41:06;564.10;2432.00
54796;DHT22;40693;43.884;20.340;2023-08-06T06:43:32;588.80;2432.00
54796;DHT22;40693;43.884;20.340;2023-08-06T06:45:59;588.90;2432.00
54796;DHT22;40693;43.884;20.340;2023-08-06T06:48:26;589.00;2432.00
54796;DHT22;40693;43.884;20.340;2023-08-06T06:50:52;589.10;2432.00
54796;DHT22;40693;43.884;20.340;2023-08-06T06:53:18;589.20;2432.00
54796;DHT22;40693;43.884;20.340;2023-08-06T06:55:43;589.30;2432.00
54796;DHT22;40693;43.884;20.340;2023-08-06T06:58:09;589.40;2432.00
54796;DHT22;40693;43.884;20.340;2023-08-06T07:00:36;589.40;2432.00
54796;DHT22;40693;43.884;20.340;2023-08-06T07:03:02;589.50;2432.00
54796;DHT22;40693;43.884;20.340;2023-08-06T07:05:28;589.50;2432.00
54796;DHT22;40693;43.884;20.340;2023-08-06T07:07:54;589.70;2432.00
54796;DHT22;40693;43.884;20.340;2023-08-06T07:10:20;614.40;2432.00
54796;DHT22;40693;43.884;20.340;2023-08-06T07:12:45;614.40;2432.00
54796;DHT22;40693;43.884;20.340;2023-08-06T07:15:11;614.50;2432.00
54796;DHT22;40693;43.884;20.340;2023-08-06T07:17:37;614.70;2432.00
54796;DHT22;40693;43.884;20.340;2023-08-06T07:20:03;614.70;2432.00
54796;DHT22;40693;43.884;20.340;2023-08-06T07:22:29;614.80;2432.00
54796;DHT22;40693;43.884;20.340;2023-08-06T07:24:55;614.80;2432.00
54796;DHT22;40693;43.884;20.340;2023-08-06T07:27:21;615.00;2432.00
54796;DHT22;40693;43.884;20.340;2023-08-06T07:29:46;615.00;2432.00
54796;DHT22;40693;43.884;20.340;2023-08-06T07:32:13;615.10;2432.00
54796;DHT22;40693;43.884;20.340;2023-08-06T07:34:39;615.20;2432.00
54796;DHT22;40693;43.884;20.340;2023-08-06T07:37:05;615.20;2432.00
54796;DHT22;40693;43.884;20.340;2023-08-06T07:39:31;615.30;2432.00
54796;DHT22;40693;43.884;20.340;2023-08-06T07:41:57;615.30;2432.00
54796;DHT22;40693;43.884;20.340;2023-08-06T07:44:22;640.00;2432.00
54796;DHT22;40693;43.884;20.340;2023-08-06T07:46:49;640.00;2432.00
54796;DHT22;40693;43.884;20.340;2023-08-06T07:49:15;640.10;2432.00
54796;DHT22;40693;43.884;20.340;2023-08-06T07:51:41;640.30;2432.00
54796;DHT22;40693;43.884;20.340;2023-08-06T07:54:06;640.30;2432.00
54796;DHT22;40693;43.884;20.340;2023-08-06T07:56:32;640.40;2432.00
54796;DHT22;40693;43.884;20.340;2023-08-06T07:58:58;640.40;2432.00
54796;DHT22;40693;43.884;20.340;2023-08-06T08:01:24;640.50;2432.00
54796;DHT22;40693;43.884;20.340;2023-08-06T08:03:49;640.70;2432.00
54796;DHT22;40693;43.884;20.340;2023-08-06T08:06:15;640.70;2432.00
54796;DHT22;40693;43.884;20.340;2023-08-06T08:08:41;640.70;2432.00
54796;DHT22;40693;43.884;20.340;2023-08-06T08:11:07;640.80;2432.00
54796;DHT22;40693;43.884;20.340;2023-08-06T08:13:33;640.80;2432.00
54796;DHT22;40693;43.884;20.340;2023-08-06T08:16:00;640.80;2432.00
54796;DHT22;40693;43.884;20.340;2023-08-06T08:18:26;640.90;2432.00
54796;DHT22;40693;43.884;20.340;2023-08-06T08:20:52;640.90;2432.00
54796;DHT22;40693;43.884;20.340;2023-08-06T08:23:18;640.90;2432.00
54796;DHT22;40693;43.884;20.340;2023-08-06T08:25:43;640.90;2432.00
54796;DHT22;40693;43.884;20.340;2023-08-06T08:28:09;640.90;2432.00
54796;DHT22;40693;43.884;20.340;2023-08-06T08:30:35;640.90;2432.00
54796;DHT22;40693;43.884;20.340;2023-08-06T08:33:00;640.90;2432.00
54796;DHT22;40693;43.884;20.340;2023-08-06T08:35:26;640.90;2432.00
54796;DHT22;40693;43.884;20.340;2023-08-06T08:37:52;640.80;2432.00
54796;DHT22;40693;43.884;20.340;2023-08-06T08:40:18;640.80;2432.00
54796;DHT22;40693;43.884;20.340;2023-08-06T08:42:44;640.90;2432.00
54796;DHT22;40693;43.884;20.340;2023-08-06T08:45:14;665.70;2432.00
54796;DHT22;40693;43.884;20.340;2023-08-06T08:47:41;665.90;2432.00
54796;DHT22;40693;43.884;20.340;2023-08-06T08:50:10;666.00;2432.00
54796;DHT22;40693;43.884;20.340;2023-08-06T08:52:38;666.10;2432.00
54796;DHT22;40693;43.884;20.340;2023-08-06T08:55:05;666.10;2432.00
54796;DHT22;40693;43.884;20.340;2023-08-06T08:57:31;666.20;2432.00
54796;DHT22;40693;43.884;20.340;2023-08-06T08:59:57;666.20;2432.00
54796;DHT22;40693;43.884;20.340;2023-08-06T09:02:25;666.10;2432.00
54796;DHT22;40693;43.884;20.340;2023-08-06T09:04:54;666.10;2432.00
54796;DHT22;40693;43.884;20.340;2023-08-06T09:07:22;666.10;2432.00
54796;DHT22;40693;43.884;20.340;2023-08-06T09:09:49;666.20;2432.00
54796;DHT22;40693;43.884;20.340;2023-08-06T09:12:17;666.40;2432.00
54796;DHT22;40693;43.884;20.340;2023-08-06T09:14:43;666.50;2432.00
54796;DHT22;40693;43.884;20.340;2023-08-06T09:17:09;691.20;2406.40
54796;DHT22;40693;43.884;20.340;2023-08-06T09:19:41;691.30;2380.80
54796;DHT22;40693;43.884;20.340;2023-08-06T09:22:11;691.40;2355.20
54796;DHT22;40693;43.884;20.340;2023-08-06T09:24:39;691.50;2355.20
54796;DHT22;40693;43.884;20.340;2023-08-06T09:27:11;691.60;2432.00
54796;DHT22;40693;43.884;20.340;2023-08-06T09:29:44;691.60;2432.00
54796;DHT22;40693;43.884;20.340;2023-08-06T09:32:11;691.60;2432.00
54796;DHT22;40693;43.884;20.340;2023-08-06T09:34:42;691.80;2432.00
54796;DHT22;40693;43.884;20.340;2023-08-06T09:37:09;691.90;2432.00
54796;DHT22;40693;43.884;20.340;2023-08-06T09:39:38;716.80;2432.00
54796;DHT22;40693;43.884;20.340;2023-08-06T09:42:04;716.90;2432.00
54796;DHT22;40693;43.884;20.340;2023-08-06T09:44:32;717.10;2432.00
54796;DHT22;40693;43.884;20.340;2023-08-06T09:46:59;717.30;2432.00
54796;DHT22;40693;43.884;20.340;2023-08-06T09:49:27;717.40;2406.40
54796;DHT22;40693;43.884;20.340;2023-08-06T09:51:54;717.30;2252.80
54796;DHT22;40693;43.884;20.340;2023-08-06T09:54:24;717.10;2304.00
54796;DHT22;40693;43.884;20.340;2023-08-06T09:56:52;717.20;2304.00
54796;DHT22;40693;43.884;20.340;2023-08-06T09:59:19;717.10;2252.80
54796;DHT22;40693;43.884;20.340;2023-08-06T10:01:45;717.10;2252.80
54796;DHT22;40693;43.884;20.340;2023-08-06T10:04:13;717.10;2227.20
54796;DHT22;40693;43.884;20.340;2023-08-06T10:06:43;717.30;2278.40
54796;DHT22;40693;43.884;20.340;2023-08-06T10:09:11;717.40;2201.60
54796;DHT22;40693;43.884;20.340;2023-08-06T10:11:38;717.60;2227.20
54796;DHT22;40693;43.884;20.340;2023-08-06T10:16:35;742.40;2176.00
54796;DHT22;40693;43.884;20.340;2023-08-06T10:19:03;742.50;2252.80
54796;DHT22;40693;43.884;20.340;2023-08-06T10:21:31;742.60;2252.80
54796;DHT22;40693;43.884;20.340;2023-08-06T10:23:57;742.80;2227.20
54796;DHT22;40693;43.884;20.340;2023-08-06T10:26:29;742.80;2201.60
54796;DHT22;40693;43.884;20.340;2023-08-06T10:28:56;742.90;2201.60
54796;DHT22;40693;43.884;20.340;2023-08-06T10:31:55;743.00;2278.40
54796;DHT22;40693;43.884;20.340;2023-08-06T10:34:21;743.10;2201.60
54796;DHT22;40693;43.884;20.340;2023-08-06T10:36:47;743.10;2278.40
54796;DHT22;40693;43.884;20.340;2023-08-06T10:39:16;743.10;2227.20
54796;DHT22;40693;43.884;20.340;2023-08-06T10:41:44;743.00;2201.60
54796;DHT22;40693;43.884;20.340;2023-08-06T10:44:11;742.90;2201.60
54796;DHT22;40693;43.884;20.340;2023-08-06T10:46:37;742.80;2252.80
54796;DHT22;40693;43.884;20.340;2023-08-06T10:49:04;742.80;2201.60
54796;DHT22;40693;43.884;20.340;2023-08-06T10:51:32;742.60;2304.00
54796;DHT22;40693;43.884;20.340;2023-08-06T10:53:59;742.40;2227.20
54796;DHT22;40693;43.884;20.340;2023-08-06T10:56:25;717.60;2201.60
54796;DHT22;40693;43.884;20.340;2023-08-06T10:58:56;717.60;2227.20
54796;DHT22;40693;43.884;20.340;2023-08-06T11:01:23;717.40;2176.00
54796;DHT22;40693;43.884;20.340;2023-08-06T11:03:51;717.30;2227.20
54796;DHT22;40693;43.884;20.340;2023-08-06T11:06:20;717.30;2304.00
54796;DHT22;40693;43.884;20.340;2023-08-06T11:08:51;717.30;2329.60
54796;DHT22;40693;43.884;20.340;2023-08-06T11:11:17;717.30;2252.80
54796;DHT22;40693;43.884;20.340;2023-08-06T11:13:44;717.20;2227.20
54796;DHT22;40693;43.884;20.340;2023-08-06T11:16:17;717.20;2252.80
54796;DHT22;40693;43.884;20.340;2023-08-06T11:18:44;717.40;2252.80
54796;DHT22;40693;43.884;20.340;2023-08-06T11:21:10;717.20;2201.60
54796;DHT22;40693;43.884;20.340;2023-08-06T11:23:37;717.30;2201.60
54796;DHT22;40693;43.884;20.340;2023-08-06T11:26:03;717.20;2252.80
54796;DHT22;40693;43.884;20.340;2023-08-06T11:28:29;717.20;2252.80
54796;DHT22;40693;43.884;20.340;2023-08-06T11:30:55;717.10;2252.80
54796;DHT22;40693;43.884;20.340;2023-08-06T11:33:22;717.20;2304.00
54796;DHT22;40693;43.884;20.340;2023-08-06T11:35:49;717.20;2355.20
54796;DHT22;40693;43.884;20.340;2023-08-06T11:38:15;717.20;2304.00
54796;DHT22;40693;43.884;20.340;2023-08-06T11:40:44;717.20;2252.80
54796;DHT22;40693;43.884;20.340;2023-08-06T11:43:11;717.10;2227.20
54796;DHT22;40693;43.884;20.340;2023-08-06T11:45:37;716.90;2227.20
54796;DHT22;40693;43.884;20.340;2023-08-06T11:48:03;692.10;2227.20
54796;DHT22;40693;43.884;20.340;2023-08-06T11:50:29;691.30;2124.80
54796;DHT22;40693;43.884;20.340;2023-08-06T11:53:00;666.00;2201.60
54796;DHT22;40693;43.884;20.340;2023-08-06T11:55:27;640.50;2227.20
54796;DHT22;40693;43.884;20.340;2023-08-06T11:57:54;615.30;2329.60
54796;DHT22;40693;43.884;20.340;2023-08-06T12:00:22;614.80;2432.00
54796;DHT22;40693;43.884;20.340;2023-08-06T12:02:49;614.50;2432.00
54796;DHT22;40693;43.884;20.340;2023-08-06T12:05:20;589.40;2432.00
54796;DHT22;40693;43.884;20.340;2023-08-06T12:07:57;588.90;2432.00
54796;DHT22;40693;43.884;20.340;2023-08-06T12:10:25;563.60;2432.00
54796;DHT22;40693;43.884;20.340;2023-08-06T12:12:51;563.30;2432.00
54796;DHT22;40693;43.884;20.340;2023-08-06T12:15:17;538.50;2406.40
54796;DHT22;40693;43.884;20.340;2023-08-06T12:17:43;538.40;2406.40
54796;DHT22;40693;43.884;20.340;2023-08-06T12:20:09;538.10;2406.40
54796;DHT22;40693;43.884;20.340;2023-08-06T12:22:36;538.00;2406.40
54796;DHT22;40693;43.884;20.340;2023-08-06T12:25:05;538.00;2406.40
54796;DHT22;40693;43.884;20.340;2023-08-06T12:27:44;537.70;2406.40
54796;DHT22;40693;43.884;20.340;2023-08-06T12:30:10;537.70;2406.40
54796;DHT22;40693;43.884;20.340;2023-08-06T12:32:37;537.60;2406.40
54796;DHT22;40693;43.884;20.340;2023-08-06T12:35:03;537.70;2406.40
54796;DHT22;40693;43.884;20.340;2023-08-06T12:37:30;537.80;2406.40
54796;DHT22;40693;43.884;20.340;2023-08-06T12:39:56;537.70;2406.40
54796;DHT22;40693;43.884;20.340;2023-08-06T12:42:21;537.90;2406.40
54796;DHT22;40693;43.884;20.340;2023-08-06T12:44:50;538.00;2406.40
54796;DHT22;40693;43.884;20.340;2023-08-06T12:47:17;538.10;2406.40
54796;DHT22;40693;43.884;20.340;2023-08-06T12:49:43;538.50;2406.40
54796;DHT22;40693;43.884;20.340;2023-08-06T12:52:08;563.30;2432.00
54796;DHT22;40693;43.884;20.340;2023-08-06T12:54:35;563.60;2432.00
54796;DHT22;40693;43.884;20.340;2023-08-06T12:57:04;563.90;2432.00
54796;DHT22;40693;43.884;20.340;2023-08-06T12:59:31;564.10;2432.00
54796;DHT22;40693;43.884;20.340;2023-08-06T13:01:57;589.10;2432.00
54796;DHT22;40693;43.884;20.340;2023-08-06T13:04:22;589.20;2432.00
54796;DHT22;40693;43.884;20.340;2023-08-06T13:06:48;589.40;2432.00
54796;DHT22;40693;43.884;20.340;2023-08-06T13:09:15;589.70;2432.00
54796;DHT22;40693;43.884;20.340;2023-08-06T13:11:41;589.70;2432.00
54796;DHT22;40693;43.884;20.340;2023-08-06T13:14:11;614.50;2432.00
54796;DHT22;40693;43.884;20.340;2023-08-06T13:16:39;614.70;2432.00
54796;DHT22;40693;43.884;20.340;2023-08-06T13:19:05;614.80;2432.00
54796;DHT22;40693;43.884;20.340;2023-08-06T13:21:57;614.90;2432.00
54796;DHT22;40693;43.884;20.340;2023-08-06T13:24:21;615.00;2432.00
54796;DHT22;40693;43.884;20.340;2023-08-06T13:26:47;615.00;2432.00
54796;DHT22;40693;43.884;20.340;2023-08-06T13:29:12;615.10;2432.00
54796;DHT22;40693;43.884;20.340;2023-08-06T13:31:38;615.00;2432.00
54796;DHT22;40693;43.884;20.340;2023-08-06T13:34:04;615.20;2432.00
54796;DHT22;40693;43.884;20.340;2023-08-06T13:36:30;615.30;2432.00
54796;DHT22;40693;43.884;20.340;2023-08-06T13:38:56;640.10;2432.00
54796;DHT22;40693;43.884;20.340;2023-08-06T13:41:23;640.30;2432.00
54796;DHT22;40693;43.884;20.340;2023-08-06T13:43:49;640.50;2432.00
54796;DHT22;40693;43.884;20.340;2023-08-06T13:46:15;640.50;2432.00
54796;DHT22;40693;43.884;20.340;2023-08-06T13:48:43;640.70;2432.00
54796;DHT22;40693;43.884;20.340;2023-08-06T13:51:10;640.80;2432.00
54796;DHT22;40693;43.884;20.340;2023-08-06T13:53:37;665.60;2432.00
54796;DHT22;40693;43.884;20.340;2023-08-06T13:56:04;665.60;2432.00
54796;DHT22;40693;43.884;20.340;2023-08-06T13:58:29;665.70;2432.00
54796;DHT22;40693;43.884;20.340;2023-08-06T14:00:55;665.80;2432.00
54796;DHT22;40693;43.884;20.340;2023-08-06T14:03:22;666.00;2432.00
54796;DHT22;40693;43.884;20.340;2023-08-06T14:05:49;666.00;2432.00
54796;DHT22;40693;43.884;20.340;2023-08-06T14:08:16;666.10;2432.00
54796;DHT22;40693;43.884;20.340;2023-08-06T14:10:44;666.10;2432.00
54796;DHT22;40693;43.884;20.340;2023-08-06T14:13:10;666.30;2432.00
54796;DHT22;40693;43.884;20.340;2023-08-06T14:15:36;666.50;2432.00
54796;DHT22;40693;43.884;20.340;2023-08-06T14:18:04;666.50;2432.00
54796;DHT22;40693;43.884;20.340;2023-08-06T14:20:30;666.50;2432.00
54796;DHT22;40693;43.884;20.340;2023-08-06T14:22:56;666.50;2432.00
54796;DHT22;40693;43.884;20.340;2023-08-06T14:25:22;691.20;2432.00
54796;DHT22;40693;43.884;20.340;2023-08-06T14:27:48;666.50;2432.00
54796;DHT22;40693;43.884;20.340;2023-08-06T14:30:14;666.50;2432.00
54796;DHT22;40693;43.884;20.340;2023-08-06T14:32:39;666.50;2432.00
54796;DHT22;40693;43.884;20.340;2023-08-06T14:35:05;666.50;2432.00
54796;DHT22;40693;43.884;20.340;2023-08-06T14:37:31;666.40;2432.00
54796;DHT22;40693;43.884;20.340;2023-08-06T14:39:57;666.30;2432.00
54796;DHT22;40693;43.884;20.340;2023-08-06T14:42:22;666.20;2432.00
54796;DHT22;40693;43.884;20.340;2023-08-06T14:44:48;666.00;2432.00